Time;durP1;ratioP1;P1;durP2;ratioP2;P2;SDS_P1;SDS_P2;PMS_P1;PMS_P2;Temp;Humidity;BMP_temperature;BMP_pressure;BME280_temperature;BME280_humidity;BME280_pressure;Samples;Min_cycle;Max_cycle;Signal;HPM_P1;HPM_P2
2022/01/30 00:00:07;;;;;;;26.20;6.23;;;;;;;6.40;78.80;102597.13;5220159;28;20414;-72
2022/01/30 00:02:38;;;;;;;24.80;5.83;;;;;;;6.37;78.51;102602.38;5223427;28;20039;-70
2022/01/30 00:05:09;;;;;;;24.80;6.13;;;;;;;6.16;78.98;102613.03;5221030;28;20033;-70
2022/01/30 00:07:41;;;;;;;22.90;6.07;;;;;;;6.38;79.07;102609.28;5221957;28;20125;-70
2022/01/30 00:10:13;;;;;;;27.60;7.10;;;;;;;6.34;79.10;102624.06;5211999;28;20527;-69
2022/01/30 00:12:54;;;;;;;23.67;5.93;;;;;;;6.19;78.33;102627.75;5221642;28;20480;-71
2022/01/30 00:23:33;;;;;;;26.70;6.07;;;;;;;6.12;79.03;102615.69;5229043;28;20574;-71
2022/01/30 00:26:07;;;;;;;25.48;6.28;;;;;;;6.09;79.04;102628.75;5209793;28;20029;-70
2022/01/30 00:28:40;;;;;;;32.08;7.80;;;;;;;6.19;78.54;102630.34;5221749;28;20022;-70
2022/01/30 00:31:14;;;;;;;42.53;7.57;;;;;;;5.99;78.42;102630.53;5222393;28;20492;-71
2022/01/30 00:33:45;;;;;;;27.33;5.22;;;;;;;6.00;78.92;102627.06;5229265;28;20541;-71
2022/01/30 00:36:17;;;;;;;30.13;6.40;;;;;;;6.11;78.32;102643.44;5227854;28;20045;-71
2022/01/30 00:38:48;;;;;;;31.87;6.77;;;;;;;5.83;79.13;102632.47;5231078;28;20112;-71
2022/01/30 00:41:19;;;;;;;31.90;6.90;;;;;;;6.02;78.66;102646.97;5223241;28;20787;-71
2022/01/30 00:43:50;;;;;;;27.07;7.47;;;;;;;6.02;78.89;102643.53;5218936;28;20029;-69
2022/01/30 00:46:22;;;;;;;28.80;6.03;;;;;;;6.12;79.08;102639.97;5220254;28;20034;-71
2022/01/30 00:48:54;;;;;;;26.23;6.50;;;;;;;6.10;78.64;102636.53;5225690;28;20068;-70
2022/01/30 00:51:25;;;;;;;26.83;6.20;;;;;;;6.13;78.21;102646.00;5229433;28;20024;-70
2022/01/30 00:53:56;;;;;;;30.20;6.67;;;;;;;6.05;78.69;102639.19;5232208;28;20416;-70
2022/01/30 00:56:28;;;;;;;19.10;5.37;;;;;;;6.04;78.96;102645.22;5220780;28;20484;-70
2022/01/30 00:58:59;;;;;;;24.63;5.80;;;;;;;5.82;78.67;102647.19;5220559;28;20088;-70
2022/01/30 01:01:32;;;;;;;29.07;6.63;;;;;;;5.82;79.65;102647.19;5219082;28;20036;-72
2022/01/30 01:04:03;;;;;;;29.40;6.30;;;;;;;5.77;79.16;102649.84;5216073;28;20036;-72
2022/01/30 01:06:37;;;;;;;32.30;6.53;;;;;;;5.74;80.29;102654.22;5212021;28;20030;-70
2022/01/30 01:09:11;;;;;;;28.73;6.27;;;;;;;5.76;78.84;102662.88;5219838;28;20073;-71
2022/01/30 01:20:58;;;;;;;35.37;7.63;;;;;;;5.90;79.50;102660.97;5232104;28;20388;-70
2022/01/30 01:25:55;;;;;;;33.87;8.60;;;;;;;5.88;79.97;102659.28;5216624;28;20116;-69
2022/01/30 01:28:27;;;;;;;32.87;7.67;;;;;;;5.71;80.33;102670.69;5216111;28;20045;-70
2022/01/30 01:30:59;;;;;;;30.23;7.47;;;;;;;5.54;80.90;102663.94;5213617;28;20176;-71
2022/01/30 01:33:51;;;;;;;29.90;7.23;;;;;;;5.63;80.43;102662.13;5193288;28;20116;-73
2022/01/30 01:36:23;;;;;;;33.97;6.03;;;;;;;5.73;80.63;102678.50;5210839;28;20420;-70
2022/01/30 01:38:54;;;;;;;33.60;7.07;;;;;;;5.62;80.98;102670.81;5225188;28;20029;-68
2022/01/30 01:41:28;;;;;;;31.13;5.90;;;;;;;5.66;81.13;102677.69;5229004;28;20739;-70
2022/01/30 01:44:00;;;;;;;32.13;7.28;;;;;;;5.52;81.31;102668.28;5226706;28;20025;-71
2022/01/30 01:46:35;;;;;;;27.73;6.00;;;;;;;5.56;81.52;102672.59;5212289;28;20096;-71
2022/01/30 01:49:06;;;;;;;24.63;6.63;;;;;;;5.62;81.18;102665.63;5194283;28;20030;-71
2022/01/30 01:51:37;;;;;;;26.57;5.73;;;;;;;5.56;81.27;102677.78;5210635;28;20675;-71
2022/01/30 01:54:09;;;;;;;30.17;6.93;;;;;;;5.61;80.65;102679.47;5221894;28;20033;-70
2022/01/30 01:56:40;;;;;;;42.90;7.87;;;;;;;5.51;80.85;102671.78;5204790;28;20108;-70
2022/01/30 01:59:12;;;;;;;33.47;7.23;;;;;;;5.58;80.75;102682.97;5226045;28;20091;-70
2022/01/30 02:01:48;;;;;;;27.63;6.87;;;;;;;5.61;80.48;102682.06;5193616;28;20033;-70
2022/01/30 02:04:20;;;;;;;29.60;5.77;;;;;;;5.54;80.70;102683.84;5217938;28;20056;-70
2022/01/30 02:07:17;;;;;;;29.13;6.57;;;;;;;5.56;80.83;102687.31;5229791;28;20024;-72
2022/01/30 02:09:47;;;;;;;32.05;7.22;;;;;;;5.42;81.22;102674.44;5189101;28;20042;-72
2022/01/30 02:12:30;;;;;;;31.30;6.50;;;;;;;5.43;81.63;102676.16;5178754;28;20056;-72
2022/01/30 02:15:27;;;;;;;24.97;6.63;;;;;;;5.32;81.26;102664.09;5248145;23;20296;-72
2022/01/30 02:24:05;;;;;;;31.27;6.47;;;;;;;5.32;81.70;102660.66;5252795;28;20120;-71
2022/01/30 02:26:42;;;;;;;38.90;7.23;;;;;;;5.28;81.90;102657.22;5264943;28;20032;-72
2022/01/30 02:29:13;;;;;;;23.47;7.10;;;;;;;5.32;81.76;102664.09;5251367;28;20033;-71
2022/01/30 02:31:45;;;;;;;40.40;6.80;;;;;;;5.27;82.35;102657.25;5251898;28;20025;-71
2022/01/30 02:34:16;;;;;;;37.20;5.83;;;;;;;5.19;82.82;102678.94;5238167;28;20029;-72
2022/01/30 02:36:51;;;;;;;32.07;6.37;;;;;;;5.28;82.60;102678.03;5243493;28;20064;-72
2022/01/30 02:39:22;;;;;;;32.90;6.07;;;;;;;5.21;82.81;102668.53;5256530;28;20479;-70
2022/01/30 02:41:54;;;;;;;33.20;6.73;;;;;;;5.26;82.90;102674.56;5232506;28;20025;-70
2022/01/30 02:44:36;;;;;;;32.80;6.47;;;;;;;5.20;82.86;102672.88;5250277;28;20486;-70
2022/01/30 02:47:21;;;;;;;24.93;5.50;;;;;;;5.21;82.52;102665.94;5250976;28;20126;-70
2022/01/30 02:52:44;;;;;;;28.87;5.40;;;;;;;5.09;83.64;102661.72;5253136;28;20523;-70
2022/01/30 02:55:15;;;;;;;26.87;5.63;;;;;;;5.10;83.37;102665.19;5254093;28;20438;-70
2022/01/30 02:57:46;;;;;;;37.27;7.60;;;;;;;4.92;83.08;102664.44;5250885;28;20017;-70
2022/01/30 03:00:18;;;;;;;21.77;6.27;;;;;;;5.03;83.43;102674.72;5251431;28;20053;-70
2022/01/30 03:02:49;;;;;;;27.47;6.33;;;;;;;4.94;83.34;102670.47;5233275;28;20083;-70
2022/01/30 03:05:20;;;;;;;38.07;7.47;;;;;;;4.99;83.29;102689.47;5250913;28;20025;-70
2022/01/30 03:07:52;;;;;;;30.10;5.90;;;;;;;4.99;83.38;102686.88;5233183;28;20086;-70
2022/01/30 03:10:23;;;;;;;31.93;6.40;;;;;;;4.92;83.27;102685.19;5233546;28;20032;-70
2022/01/30 03:12:54;;;;;;;28.33;5.97;;;;;;;4.91;83.43;102691.25;5250299;28;20403;-70
2022/01/30 03:15:26;;;;;;;43.67;7.83;;;;;;;4.81;83.47;102693.91;5228806;28;20052;-70
2022/01/30 03:17:57;;;;;;;23.80;5.17;;;;;;;4.80;83.46;102694.75;5232018;28;20474;-70
2022/01/30 03:20:28;;;;;;;34.47;7.23;;;;;;;4.81;84.08;102698.22;5234221;28;20017;-70
2022/01/30 03:23:02;;;;;;;26.03;5.90;;;;;;;4.85;83.95;102705.16;5234897;28;20391;-70
2022/01/30 03:25:34;;;;;;;33.37;7.00;;;;;;;4.74;84.52;102692.22;5234070;28;20041;-70
2022/01/30 03:28:05;;;;;;;29.50;5.70;;;;;;;4.82;85.07;102700.81;5233825;28;20068;-70
2022/01/30 03:30:37;;;;;;;29.80;4.97;;;;;;;4.91;84.66;102704.22;5234249;28;20063;-70
2022/01/30 03:33:09;;;;;;;27.33;5.67;;;;;;;4.93;84.00;102712.88;5234264;28;20034;-70
2022/01/30 03:35:40;;;;;;;29.80;6.30;;;;;;;4.96;84.89;102711.13;5234363;28;20522;-70
2022/01/30 03:38:12;;;;;;;21.50;5.17;;;;;;;4.96;85.11;102712.84;5232877;28;20029;-70
2022/01/30 03:40:43;;;;;;;22.40;5.40;;;;;;;4.99;85.01;102732.75;5233751;28;20468;-70
2022/01/30 03:43:15;;;;;;;28.67;6.07;;;;;;;4.94;84.91;102738.00;5233772;28;20026;-70
2022/01/30 03:45:47;;;;;;;31.27;6.93;;;;;;;5.01;84.88;102737.06;5234606;28;20029;-70
2022/01/30 03:48:19;;;;;;;35.20;7.33;;;;;;;4.99;85.67;102740.56;5233524;28;20678;-70
2022/01/30 03:50:50;;;;;;;30.77;5.50;;;;;;;4.97;85.66;102751.78;5234254;28;20032;-70
2022/01/30 03:53:21;;;;;;;25.90;7.17;;;;;;;4.86;86.05;102750.13;5232202;28;20029;-70
2022/01/30 03:55:52;;;;;;;27.47;6.00;;;;;;;4.99;85.79;102749.22;5233886;28;20036;-70
2022/01/30 03:58:24;;;;;;;31.50;6.77;;;;;;;4.97;85.62;102735.38;5233944;28;20049;-70
2022/01/30 04:00:55;;;;;;;29.57;6.70;;;;;;;4.97;85.59;102750.94;5231125;28;20579;-70
2022/01/30 04:03:26;;;;;;;32.57;6.13;;;;;;;4.93;85.89;102750.09;5231539;28;20075;-70
2022/01/30 04:05:58;;;;;;;30.17;5.40;;;;;;;4.97;85.93;102756.97;5232678;28;20037;-70
2022/01/30 04:08:29;;;;;;;30.10;6.13;;;;;;;4.93;85.86;102754.41;5233991;28;20376;-72
2022/01/30 04:11:01;;;;;;;35.87;7.43;;;;;;;4.96;85.62;102763.06;5232562;28;20040;-72
2022/01/30 04:13:32;;;;;;;29.43;5.50;;;;;;;4.96;85.90;102759.59;5234721;28;20041;-72
2022/01/30 04:16:04;;;;;;;30.10;6.53;;;;;;;5.03;85.72;102770.81;5254250;28;20017;-70
2022/01/30 04:18:35;;;;;;;29.13;5.90;;;;;;;5.04;85.70;102776.03;5254442;28;20061;-70
2022/01/30 04:21:07;;;;;;;23.33;6.23;;;;;;;5.05;86.33;102774.25;5239638;28;20036;-70
2022/01/30 04:23:39;;;;;;;27.53;6.13;;;;;;;5.03;85.96;102763.88;5254194;28;20021;-69
2022/01/30 04:26:10;;;;;;;36.93;7.27;;;;;;;4.95;86.68;102774.34;5235365;28;20048;-70
2022/01/30 04:28:42;;;;;;;27.47;6.00;;;;;;;5.07;85.70;102762.13;5253846;28;20521;-70
2022/01/30 04:31:14;;;;;;;26.80;5.47;;;;;;;5.05;86.08;102776.88;5253878;28;20036;-70
2022/01/30 04:33:45;;;;;;;24.60;5.33;;;;;;;5.15;85.27;102780.28;5254234;28;20301;-69
2022/01/30 04:36:22;;;;;;;29.80;5.93;;;;;;;5.20;85.54;102773.34;5235619;28;20082;-70
2022/01/30 04:42:17;;;;;;;29.73;5.83;;;;;;;5.14;84.99;102773.34;5253196;28;20108;-70
2022/01/30 05:01:02;;;;;;;26.00;5.37;;;;;;;5.19;84.14;102794.97;5253103;28;20041;-70
2022/01/30 05:03:50;;;;;;;30.63;5.63;;;;;;;5.13;83.51;102788.06;5235868;28;20074;-70
2022/01/30 05:06:32;;;;;;;27.93;4.90;;;;;;;5.16;83.12;102808.84;5252960;28;20036;-70
2022/01/30 05:09:03;;;;;;;25.27;5.87;;;;;;;5.18;82.84;102811.44;5235202;28;20530;-70
2022/01/30 05:11:35;;;;;;;19.47;4.50;;;;;;;5.02;83.56;102801.13;5252014;28;20024;-70
2022/01/30 05:14:06;;;;;;;24.27;6.57;;;;;;;4.88;83.74;102805.50;5252951;28;20045;-70
2022/01/30 05:16:38;;;;;;;28.63;5.83;;;;;;;4.88;83.73;102819.38;5252995;28;20036;-70
2022/01/30 05:19:12;;;;;;;24.17;4.67;;;;;;;4.94;84.06;102821.09;5253246;28;20503;-69
2022/01/30 05:21:44;;;;;;;27.77;5.05;;;;;;;4.90;83.84;102821.94;5253650;28;20115;-70
2022/01/30 05:24:15;;;;;;;28.80;5.30;;;;;;;4.75;84.33;102817.69;5252441;28;20111;-70
2022/01/30 05:26:47;;;;;;;23.00;5.60;;;;;;;4.66;84.79;102821.19;5234224;28;20025;-70
2022/01/30 05:29:19;;;;;;;19.23;4.70;;;;;;;4.83;84.23;102821.13;5252163;28;20468;-69
2022/01/30 05:31:50;;;;;;;25.80;5.10;;;;;;;4.73;84.27;102815.06;5253111;28;20032;-69
2022/01/30 05:34:22;;;;;;;30.40;5.40;;;;;;;4.75;84.02;102810.75;5252661;28;20021;-70
2022/01/30 05:36:56;;;;;;;17.83;5.83;;;;;;;4.51;85.01;102802.16;5253109;28;20029;-69
2022/01/30 05:39:28;;;;;;;20.67;3.67;;;;;;;4.68;84.31;102817.69;5233217;28;20104;-69
2022/01/30 05:41:59;;;;;;;23.73;5.33;;;;;;;4.60;84.26;102820.31;5252148;28;20131;-69
2022/01/30 05:44:44;;;;;;;27.37;6.17;;;;;;;4.67;84.08;102820.28;5251888;28;20028;-70
2022/01/30 05:47:24;;;;;;;27.58;5.65;;;;;;;4.71;83.95;102832.41;5252922;28;20541;-70
2022/01/30 05:49:55;;;;;;;29.30;5.70;;;;;;;4.57;84.10;102830.69;5251869;28;20027;-69
2022/01/30 05:52:26;;;;;;;31.10;6.53;;;;;;;4.53;84.71;102834.19;5252334;28;20483;-69
2022/01/30 05:54:58;;;;;;;21.77;4.40;;;;;;;4.58;83.36;102837.63;5252717;28;20033;-69
2022/01/30 05:57:29;;;;;;;27.03;6.93;;;;;;;4.57;83.54;102843.66;5250819;28;20512;-69
2022/01/30 06:00:00;;;;;;;23.87;5.80;;;;;;;4.47;84.23;102844.56;5251602;28;20519;-70
2022/01/30 06:02:32;;;;;;;21.13;4.40;;;;;;;4.45;83.91;102844.56;5252069;28;20028;-70
2022/01/30 06:05:04;;;;;;;28.30;6.90;;;;;;;4.25;84.45;102839.41;5252164;28;20036;-70
2022/01/30 06:07:45;;;;;;;22.90;4.80;;;;;;;4.47;83.66;102845.44;5234390;28;20378;-70
2022/01/30 06:10:17;;;;;;;22.70;3.80;;;;;;;4.47;83.34;102845.44;5251230;28;20035;-70
2022/01/30 06:12:48;;;;;;;21.97;4.27;;;;;;;4.48;82.68;102848.88;5251723;28;20028;-69
2022/01/30 06:15:20;;;;;;;20.70;4.13;;;;;;;4.47;83.02;102853.22;5251812;28;20600;-70
2022/01/30 06:17:51;;;;;;;18.20;4.40;;;;;;;4.42;83.02;102836.78;5252264;28;20021;-70
2022/01/30 06:20:22;;;;;;;37.17;6.50;;;;;;;4.46;83.17;102854.09;5233901;28;20021;-70
2022/01/30 06:22:54;;;;;;;25.73;5.70;;;;;;;4.43;82.82;102848.03;5252161;28;20501;-70
2022/01/30 06:25:25;;;;;;;22.67;4.17;;;;;;;4.39;82.88;102861.88;5250345;28;20040;-69
2022/01/30 06:27:56;;;;;;;18.73;4.70;;;;;;;4.38;82.59;102850.63;5233985;28;20037;-69
2022/01/30 06:30:28;;;;;;;19.63;4.13;;;;;;;4.39;83.10;102849.75;5251323;28;20041;-69
2022/01/30 06:33:00;;;;;;;22.23;4.50;;;;;;;4.32;83.38;102845.44;5251996;28;20025;-70
2022/01/30 06:35:31;;;;;;;18.27;4.33;;;;;;;4.35;83.05;102832.47;5233825;28;20132;-70
2022/01/30 06:38:03;;;;;;;19.43;4.00;;;;;;;4.36;83.34;102845.44;5250811;28;20028;-70
2022/01/30 06:40:34;;;;;;;21.67;4.10;;;;;;;4.42;83.44;102841.09;5250989;28;20039;-69
2022/01/30 06:43:05;;;;;;;28.00;3.87;;;;;;;4.57;82.89;102851.44;5232983;28;20124;-70
2022/01/30 06:45:37;;;;;;;22.07;4.60;;;;;;;4.54;82.46;102867.03;5252050;28;20079;-70
2022/01/30 06:48:09;;;;;;;19.93;3.90;;;;;;;4.56;82.65;102869.63;5251165;28;20067;-69
2022/01/30 06:50:40;;;;;;;23.37;6.00;;;;;;;4.56;81.67;102867.91;5251095;28;20033;-70
2022/01/30 06:53:12;;;;;;;19.33;5.77;;;;;;;4.58;81.86;102862.69;5251226;28;20104;-69
2022/01/30 06:55:43;;;;;;;28.67;4.40;;;;;;;4.66;81.85;102873.09;5232513;28;20029;-69
2022/01/30 06:58:15;;;;;;;18.53;3.77;;;;;;;4.68;82.01;102872.19;5228341;28;20059;-69
2022/01/30 07:00:46;;;;;;;22.30;4.33;;;;;;;4.60;82.45;102871.34;5254752;28;20037;-71
2022/01/30 07:03:17;;;;;;;25.43;4.03;;;;;;;4.68;82.36;102879.13;5251004;28;20017;-71
2022/01/30 07:05:48;;;;;;;20.57;3.90;;;;;;;4.67;82.48;102883.47;5250859;28;20467;-69
2022/01/30 07:08:20;;;;;;;21.40;4.77;;;;;;;4.51;82.91;102884.34;5251330;28;20054;-69
2022/01/30 07:10:51;;;;;;;20.10;4.40;;;;;;;4.58;83.10;102893.84;5250661;28;20029;-69
2022/01/30 07:13:22;;;;;;;20.37;4.10;;;;;;;4.50;82.96;102891.28;5250254;28;20029;-69
2022/01/30 07:15:53;;;;;;;20.63;4.53;;;;;;;4.36;83.61;102892.13;5265279;28;20079;-69
2022/01/30 07:18:25;;;;;;;20.87;4.07;;;;;;;4.24;84.16;102892.16;5256427;28;20032;-69
2022/01/30 07:20:56;;;;;;;24.50;5.77;;;;;;;4.39;83.34;102893.00;5271888;28;20033;-70
2022/01/30 07:23:27;;;;;;;26.47;4.93;;;;;;;4.47;83.72;102899.03;5237896;28;20044;-71
2022/01/30 07:25:59;;;;;;;33.27;6.03;;;;;;;4.29;84.11;102895.63;5249858;28;20021;-71
2022/01/30 07:28:30;;;;;;;23.87;5.53;;;;;;;4.29;84.06;102908.59;5245955;28;20025;-72
2022/01/30 07:31:02;;;;;;;22.80;5.00;;;;;;;4.35;83.79;102905.09;5269534;28;20032;-72
2022/01/30 07:33:35;;;;;;;19.37;5.03;;;;;;;4.29;83.49;102903.41;5246953;28;20031;-72
2022/01/30 07:36:08;;;;;;;22.33;4.10;;;;;;;4.28;83.57;102912.03;5254440;28;20052;-72
2022/01/30 07:38:41;;;;;;;26.57;5.30;;;;;;;4.21;84.48;102908.56;5259269;28;20033;-71
2022/01/30 07:41:13;;;;;;;17.70;4.17;;;;;;;4.24;83.58;102920.69;5255590;28;20368;-71
2022/01/30 07:43:44;;;;;;;18.40;4.27;;;;;;;4.14;84.20;102916.38;5275128;28;20032;-71
2022/01/30 07:46:15;;;;;;;17.97;3.40;;;;;;;4.23;83.47;102931.91;5271653;28;20108;-71
2022/01/30 07:48:47;;;;;;;25.17;4.50;;;;;;;4.06;84.26;102937.97;5266509;28;20825;-71
2022/01/30 07:51:18;;;;;;;22.53;4.07;;;;;;;4.26;83.46;102937.09;5250227;28;20037;-71
2022/01/30 07:53:49;;;;;;;18.43;3.93;;;;;;;4.30;83.61;102933.66;5260007;28;20439;-71
2022/01/30 07:56:20;;;;;;;21.40;4.37;;;;;;;4.25;82.91;102925.00;5255968;28;20527;-71
2022/01/30 07:58:52;;;;;;;19.67;4.07;;;;;;;4.17;84.01;102922.38;5254827;28;20039;-69
2022/01/30 08:01:23;;;;;;;27.57;4.43;;;;;;;4.24;83.70;102931.91;5250221;28;20036;-69
2022/01/30 08:03:54;;;;;;;21.80;4.00;;;;;;;4.06;84.26;102937.97;5261128;28;20060;-69
2022/01/30 08:06:26;;;;;;;19.67;5.37;;;;;;;4.20;84.24;102929.31;5257951;28;20108;-69
2022/01/30 08:08:58;;;;;;;26.03;6.53;;;;;;;4.08;84.80;102933.66;5254676;28;20043;-69
2022/01/30 08:11:29;;;;;;;21.13;5.47;;;;;;;4.24;83.89;102936.25;5240940;28;20024;-69
2022/01/30 08:14:00;;;;;;;28.73;5.00;;;;;;;4.10;84.13;102929.31;5258637;28;20045;-70
2022/01/30 08:16:32;;;;;;;19.57;3.50;;;;;;;4.09;83.91;102943.16;5266090;28;20039;-69
2022/01/30 08:19:03;;;;;;;27.63;5.03;;;;;;;4.31;83.19;102943.16;5235804;28;20044;-69
2022/01/30 08:21:34;;;;;;;33.37;4.80;;;;;;;4.27;83.66;102950.94;5255710;28;20036;-69
2022/01/30 08:24:06;;;;;;;23.47;5.63;;;;;;;4.44;83.21;102953.53;5266738;28;20033;-69
2022/01/30 08:26:37;;;;;;;22.63;4.40;;;;;;;4.40;83.78;102951.84;5250745;28;20037;-69
2022/01/30 08:29:08;;;;;;;23.33;3.77;;;;;;;4.39;82.69;102935.38;5238315;28;20656;-69
2022/01/30 08:31:40;;;;;;;21.50;4.37;;;;;;;4.55;82.98;102951.84;5252331;28;20037;-70
2022/01/30 08:34:11;;;;;;;24.97;4.23;;;;;;;4.44;82.36;102958.72;5256548;28;20379;-69
2022/01/30 08:36:42;;;;;;;22.67;4.50;;;;;;;4.55;82.65;102954.44;5270223;28;20029;-69
2022/01/30 08:39:13;;;;;;;18.80;4.10;;;;;;;4.57;82.10;102955.25;5266420;28;20025;-69
2022/01/30 08:41:45;;;;;;;25.23;5.27;;;;;;;4.76;81.70;102954.41;5261163;28;20881;-69
2022/01/30 08:44:16;;;;;;;30.10;5.20;;;;;;;4.80;81.65;102956.97;5256835;28;20128;-69
2022/01/30 08:46:48;;;;;;;27.13;5.47;;;;;;;4.95;81.44;102952.63;5266715;28;20035;-69
2022/01/30 08:49:19;;;;;;;25.97;5.70;;;;;;;4.99;81.10;102954.38;5262675;28;20505;-69
2022/01/30 08:51:50;;;;;;;19.93;4.87;;;;;;;5.06;80.44;102952.63;5273949;28;20067;-69
2022/01/30 08:54:21;;;;;;;19.40;4.87;;;;;;;5.07;79.49;102952.63;5252445;28;20072;-70
2022/01/30 08:56:53;;;;;;;27.40;4.57;;;;;;;5.17;79.49;102956.03;5248227;28;20029;-69
2022/01/30 08:59:24;;;;;;;29.73;4.73;;;;;;;5.19;79.14;102961.25;5254773;28;20075;-69
2022/01/30 09:01:55;;;;;;;26.03;4.60;;;;;;;5.06;79.93;102947.44;5258648;28;20021;-69
2022/01/30 09:04:26;;;;;;;36.27;5.30;;;;;;;5.16;79.03;102953.47;5249254;28;20029;-69
2022/01/30 09:06:58;;;;;;;15.60;5.17;;;;;;;5.40;79.05;102962.03;5265305;28;20024;-69
2022/01/30 09:09:30;;;;;;;23.13;4.90;;;;;;;5.39;78.07;102963.78;5272771;28;20033;-69
2022/01/30 09:12:03;;;;;;;24.27;5.33;;;;;;;5.30;78.78;102971.59;5258494;28;20021;-70
2022/01/30 09:14:36;;;;;;;25.50;6.23;;;;;;;5.45;77.83;102968.94;5266070;28;20083;-69
2022/01/30 09:17:13;;;;;;;23.53;5.30;;;;;;;5.40;77.11;102975.91;5242320;28;20169;-69
2022/01/30 09:19:46;;;;;;;31.10;6.03;;;;;;;5.57;77.82;102980.16;5253561;28;20021;-69
2022/01/30 09:22:18;;;;;;;21.27;4.40;;;;;;;5.56;76.67;102984.50;5266441;28;20112;-69
2022/01/30 09:24:49;;;;;;;28.73;4.43;;;;;;;5.73;76.44;102996.56;5268828;28;20029;-69
2022/01/30 09:27:20;;;;;;;27.50;5.63;;;;;;;5.85;75.79;102998.25;5253307;28;20074;-69
2022/01/30 09:29:52;;;;;;;29.10;5.30;;;;;;;5.96;75.66;102982.59;5258695;28;20037;-69
2022/01/30 09:32:24;;;;;;;26.60;6.73;;;;;;;6.04;74.97;102973.00;5254911;28;20031;-69
2022/01/30 09:34:56;;;;;;;28.63;4.67;;;;;;;5.97;75.05;102981.69;5246117;28;20025;-69
2022/01/30 09:37:28;;;;;;;23.57;5.07;;;;;;;6.19;75.00;102992.03;5252859;28;20384;-69
2022/01/30 09:39:59;;;;;;;26.67;4.80;;;;;;;6.18;73.56;102987.66;5251489;28;20045;-69
2022/01/30 09:42:31;;;;;;;24.30;6.07;;;;;;;6.24;73.81;102999.78;5268808;28;20052;-70
2022/01/30 09:45:04;;;;;;;29.83;6.37;;;;;;;6.20;73.96;103003.28;5268269;28;20086;-70
2022/01/30 09:47:36;;;;;;;28.87;5.27;;;;;;;6.22;74.04;103005.00;5256754;28;20560;-70
2022/01/30 09:50:09;;;;;;;24.53;5.53;;;;;;;6.89;71.40;103006.22;5238468;28;20033;-69
2022/01/30 09:52:40;;;;;;;25.87;5.73;;;;;;;7.06;69.54;103002.59;5253641;28;20013;-69
2022/01/30 09:55:12;;;;;;;27.17;5.93;;;;;;;6.92;69.39;103000.13;5252489;28;20029;-69
2022/01/30 09:57:43;;;;;;;26.03;5.63;;;;;;;6.88;69.28;103009.69;5269657;28;20032;-69
2022/01/30 10:00:16;;;;;;;28.17;5.60;;;;;;;7.04;69.65;103010.44;5264631;28;20033;-69
2022/01/30 10:02:48;;;;;;;27.10;5.23;;;;;;;6.92;67.99;103011.41;5262946;28;20029;-70
2022/01/30 10:05:19;;;;;;;29.93;7.03;;;;;;;6.85;68.54;103013.22;5251849;28;20732;-69
2022/01/30 10:07:53;;;;;;;28.60;7.53;;;;;;;6.97;69.26;103019.16;5273020;28;20107;-73
2022/01/30 10:10:28;;;;;;;30.07;6.87;;;;;;;6.92;68.73;103018.34;5252150;28;20521;-69
2022/01/30 10:13:06;;;;;;;25.10;5.00;;;;;;;7.37;68.54;103030.94;5250383;28;20029;-70
2022/01/30 10:15:52;;;;;;;24.77;5.63;;;;;;;7.22;68.96;103016.34;5238752;28;20124;-67
2022/01/30 10:18:27;;;;;;;35.37;6.03;;;;;;;7.57;67.16;103033.34;5254301;28;20041;-68
2022/01/30 10:20:59;;;;;;;39.27;6.77;;;;;;;7.46;68.70;103029.97;5257012;28;20032;-67
2022/01/30 10:23:35;;;;;;;30.50;6.10;;;;;;;7.63;67.17;103041.06;5251070;28;20021;-68
2022/01/30 10:26:12;;;;;;;29.07;6.07;;;;;;;7.76;66.50;103035.72;5247295;28;20045;-68
2022/01/30 10:28:43;;;;;;;28.33;7.03;;;;;;;7.62;66.88;103026.31;5255126;28;20219;-67
2022/01/30 10:31:14;;;;;;;23.83;5.17;;;;;;;7.48;66.80;103034.31;5235889;28;20044;-68
2022/01/30 10:33:51;;;;;;;28.37;6.23;;;;;;;7.65;67.17;103041.06;5235276;28;20032;-68
2022/01/30 10:36:30;;;;;;;22.27;5.50;;;;;;;7.79;66.77;103032.19;5260450;28;20036;-67
2022/01/30 10:39:14;;;;;;;29.23;5.63;;;;;;;7.84;66.85;103031.25;5235970;28;20036;-67
2022/01/30 10:41:53;;;;;;;36.15;7.35;;;;;;;7.99;65.67;103038.00;5255485;28;20107;-66
2022/01/30 10:44:24;;;;;;;31.40;5.97;;;;;;;8.10;66.43;103026.56;5251196;28;20032;-67
2022/01/30 10:46:55;;;;;;;25.63;5.57;;;;;;;8.17;65.39;103028.19;5248356;28;20089;-68
2022/01/30 10:49:27;;;;;;;23.30;5.20;;;;;;;8.13;66.31;103034.38;5247791;28;20025;-68
2022/01/30 10:52:00;;;;;;;29.50;6.07;;;;;;;8.14;65.14;103030.84;5231842;28;20439;-68
2022/01/30 10:54:34;;;;;;;26.07;6.37;;;;;;;8.11;66.04;103030.91;5231899;28;20453;-70
2022/01/30 10:57:06;;;;;;;21.50;5.13;;;;;;;8.09;64.82;103024.84;5238666;28;20526;-75
2022/01/30 10:59:43;;;;;;;30.30;7.30;;;;;;;7.97;63.73;103023.28;5256301;28;20040;-76
2022/01/30 11:02:14;;;;;;;26.30;5.97;;;;;;;8.07;63.54;103039.66;5230935;28;20032;-73
2022/01/30 11:04:48;;;;;;;26.10;6.63;;;;;;;7.95;64.81;103030.25;5232314;28;20495;-72
2022/01/30 11:07:27;;;;;;;23.77;5.57;;;;;;;8.05;63.66;103018.78;5254149;28;20063;-70
2022/01/30 11:10:07;;;;;;;32.97;7.53;;;;;;;7.98;62.83;103004.97;5256628;28;20115;-73
2022/01/30 11:12:57;;;;;;;27.40;5.13;;;;;;;7.92;62.98;102998.97;5250974;28;20481;-72
2022/01/30 11:18:03;;;;;;;27.97;6.87;;;;;;;7.74;63.12;103007.03;5233593;28;20045;-70
2022/01/30 11:20:34;;;;;;;26.37;6.17;;;;;;;7.73;64.26;102999.25;5250339;28;20013;-72
2022/01/30 11:23:08;;;;;;;27.87;7.07;;;;;;;7.82;62.85;102980.00;5251820;28;20421;-71
2022/01/30 11:25:43;;;;;;;29.50;7.78;;;;;;;7.84;63.25;102999.06;5232613;28;20009;-70
2022/01/30 11:28:16;;;;;;;31.10;7.13;;;;;;;7.72;62.34;103005.31;5232677;28;20378;-69
2022/01/30 11:30:49;;;;;;;30.97;6.67;;;;;;;7.67;61.95;103002.78;5248118;28;20625;-71
2022/01/30 11:33:22;;;;;;;36.07;7.73;;;;;;;7.77;62.18;102989.63;5236459;28;20028;-69
2022/01/30 11:35:54;;;;;;;30.43;6.33;;;;;;;7.88;61.53;102979.91;5250599;28;20021;-68
2022/01/30 11:38:25;;;;;;;28.77;6.53;;;;;;;7.71;62.07;102991.44;5254294;28;20037;-69
2022/01/30 11:41:17;;;;;;;30.57;5.93;;;;;;;7.74;62.62;102996.59;5254867;28;20059;-68
2022/01/30 11:44:17;;;;;;;26.67;5.70;;;;;;;7.78;63.35;102992.22;5258333;28;20422;-68
2022/01/30 11:46:52;;;;;;;25.30;7.23;;;;;;;7.60;61.82;102991.56;5242664;28;20575;-69
2022/01/30 11:49:37;;;;;;;;;;;;;;;7.91;64.09;102990.28;5252261;28;20571;-69
2022/01/30 11:52:11;;;;;;;29.08;6.00;;;;;;;7.56;60.61;102986.38;5254096;28;19932;-69
2022/01/30 11:54:47;;;;;;;18.70;5.33;;;;;;;7.63;61.99;102975.88;5256629;28;20548;-69
2022/01/30 11:57:21;;;;;;;26.97;6.00;;;;;;;7.82;62.27;102982.59;5252841;28;20534;-69
2022/01/30 11:59:54;;;;;;;30.67;6.63;;;;;;;7.92;62.36;102976.38;5236168;28;20033;-69
2022/01/30 12:02:33;;;;;;;29.13;6.13;;;;;;;7.93;61.88;102972.88;5251682;28;20032;-69
2022/01/30 12:05:09;;;;;;;32.07;7.37;;;;;;;7.92;61.99;102978.13;5233324;28;20063;-69
2022/01/30 12:07:44;;;;;;;26.73;6.70;;;;;;;8.12;61.45;102975.19;5264182;28;20059;-71
2022/01/30 12:10:15;;;;;;;27.03;5.13;;;;;;;8.17;60.12;102975.16;5233560;28;20037;-68
2022/01/30 12:12:55;;;;;;;26.87;5.40;;;;;;;8.30;60.79;102973.19;5233159;28;20509;-69
2022/01/30 12:15:43;;;;;;;25.90;6.10;;;;;;;8.39;61.17;102962.63;5254008;28;20049;-70
2022/01/30 12:18:19;;;;;;;23.73;5.07;;;;;;;8.32;60.05;102976.66;5253645;28;20028;-67
2022/01/30 12:20:57;;;;;;;28.77;5.33;;;;;;;8.39;59.81;102966.97;5235452;28;20179;-67
2022/01/30 12:23:30;;;;;;;20.87;4.63;;;;;;;8.17;59.49;102968.16;5249618;28;20082;-68
2022/01/30 12:26:08;;;;;;;24.23;6.37;;;;;;;7.93;60.05;102969.38;5232195;28;20036;-68
2022/01/30 12:28:49;;;;;;;25.63;5.30;;;;;;;8.03;59.59;102962.31;5254809;28;20741;-68
2022/01/30 12:31:23;;;;;;;27.67;5.60;;;;;;;8.11;59.58;102963.03;5251508;28;20605;-68
2022/01/30 12:34:17;;;;;;;25.75;4.25;;;;;;;8.12;60.06;102972.59;5252472;28;20021;-67
2022/01/30 12:36:53;;;;;;;26.47;4.93;;;;;;;8.17;58.39;102947.28;5229803;28;20041;-67
2022/01/30 12:39:24;;;;;;;26.77;6.60;;;;;;;8.16;57.96;102942.97;5249305;28;20087;-69
2022/01/30 12:41:55;;;;;;;26.43;5.00;;;;;;;8.37;58.21;102940.00;5252218;28;20025;-68